sensor_id;sensor_type;location;lat;lon;timestamp;pressure;altitude;pressure_sealevel;temperature;humidity
4123;BME280;2075;51.062;6.920;2023-03-03T00:01:49;-10909.50;;;-144.48;100.00
4123;BME280;2075;51.062;6.920;2023-03-03T00:04:35;-10657.44;;;-144.48;100.00
4123;BME280;2075;51.062;6.920;2023-03-03T00:07:20;-10657.44;;;-144.48;100.00
4123;BME280;2075;51.062;6.920;2023-03-03T00:10:06;-10909.50;;;-144.48;100.00
4123;BME280;2075;51.062;6.920;2023-03-03T00:12:51;-11161.53;;;-144.48;100.00
4123;BME280;2075;51.062;6.920;2023-03-03T00:15:38;-11413.53;;;-144.48;100.00
4123;BME280;2075;51.062;6.920;2023-03-03T00:18:27;-11413.53;;;-144.48;100.00
4123;BME280;2075;51.062;6.920;2023-03-03T00:21:22;-11665.53;;;-144.48;100.00
4123;BME280;2075;51.062;6.920;2023-03-03T00:24:18;-11667.00;;;-144.48;100.00
4123;BME280;2075;51.062;6.920;2023-03-03T00:27:16;-11667.00;;;-144.48;100.00
4123;BME280;2075;51.062;6.920;2023-03-03T00:30:02;-11667.00;;;-144.48;100.00
4123;BME280;2075;51.062;6.920;2023-03-03T00:33:10;-11667.00;;;-144.48;100.00
4123;BME280;2075;51.062;6.920;2023-03-03T00:36:29;-11667.00;;;-144.48;100.00
4123;BME280;2075;51.062;6.920;2023-03-03T00:39:25;-11667.00;;;-144.48;100.00
4123;BME280;2075;51.062;6.920;2023-03-03T00:42:12;-11667.00;;;-144.48;100.00
4123;BME280;2075;51.062;6.920;2023-03-03T00:44:58;-11667.00;;;-144.48;100.00
4123;BME280;2075;51.062;6.920;2023-03-03T00:47:44;-11667.00;;;-144.48;100.00
4123;BME280;2075;51.062;6.920;2023-03-03T00:50:32;-11667.00;;;-144.48;100.00
4123;BME280;2075;51.062;6.920;2023-03-03T00:53:20;-11667.00;;;-144.48;100.00
4123;BME280;2075;51.062;6.920;2023-03-03T00:56:06;-11667.00;;;-144.48;100.00
4123;BME280;2075;51.062;6.920;2023-03-03T00:58:51;-11667.00;;;-144.48;100.00
4123;BME280;2075;51.062;6.920;2023-03-03T01:01:38;-11667.00;;;-144.48;100.00
4123;BME280;2075;51.062;6.920;2023-03-03T01:04:24;-11667.00;;;-144.48;100.00
4123;BME280;2075;51.062;6.920;2023-03-03T01:07:10;-11667.00;;;-144.48;100.00
4123;BME280;2075;51.062;6.920;2023-03-03T01:09:56;-11667.00;;;-144.48;100.00
4123;BME280;2075;51.062;6.920;2023-03-03T01:12:42;-11667.00;;;-144.48;100.00
4123;BME280;2075;51.062;6.920;2023-03-03T01:15:27;-11667.00;;;-144.48;100.00
4123;BME280;2075;51.062;6.920;2023-03-03T01:18:13;-11667.00;;;-144.48;100.00
4123;BME280;2075;51.062;6.920;2023-03-03T01:20:59;-11667.00;;;-144.48;100.00
4123;BME280;2075;51.062;6.920;2023-03-03T01:23:46;-11667.00;;;-144.48;100.00
4123;BME280;2075;51.062;6.920;2023-03-03T01:26:31;-11667.00;;;-144.48;100.00
4123;BME280;2075;51.062;6.920;2023-03-03T01:29:16;-11667.00;;;-144.48;100.00
4123;BME280;2075;51.062;6.920;2023-03-03T01:32:02;-11667.00;;;-144.48;100.00
4123;BME280;2075;51.062;6.920;2023-03-03T01:34:47;-11667.00;;;-144.48;100.00
4123;BME280;2075;51.062;6.920;2023-03-03T01:37:33;-11667.00;;;-144.48;100.00
4123;BME280;2075;51.062;6.920;2023-03-03T01:40:23;-11667.00;;;-144.48;100.00
4123;BME280;2075;51.062;6.920;2023-03-03T01:43:11;-11667.00;;;-144.48;100.00
4123;BME280;2075;51.062;6.920;2023-03-03T01:49:24;-11667.00;;;-144.48;100.00
4123;BME280;2075;51.062;6.920;2023-03-03T01:52:14;-11667.00;;;-144.48;100.00
4123;BME280;2075;51.062;6.920;2023-03-03T01:55:07;-11667.00;;;-144.48;100.00
4123;BME280;2075;51.062;6.920;2023-03-03T01:57:58;-11667.00;;;-144.48;100.00
4123;BME280;2075;51.062;6.920;2023-03-03T02:00:49;-11667.00;;;-144.48;100.00
4123;BME280;2075;51.062;6.920;2023-03-03T02:03:35;-11667.00;;;-144.48;100.00
4123;BME280;2075;51.062;6.920;2023-03-03T02:06:23;-11667.00;;;-144.48;100.00
4123;BME280;2075;51.062;6.920;2023-03-03T02:09:14;-11667.00;;;-144.48;100.00
4123;BME280;2075;51.062;6.920;2023-03-03T02:12:04;-11667.00;;;-144.48;100.00
4123;BME280;2075;51.062;6.920;2023-03-03T02:14:52;-11667.00;;;-144.48;100.00
4123;BME280;2075;51.062;6.920;2023-03-03T02:17:38;-11667.00;;;-144.48;100.00
4123;BME280;2075;51.062;6.920;2023-03-03T02:20:31;-11667.00;;;-144.48;100.00
4123;BME280;2075;51.062;6.920;2023-03-03T02:23:22;-11667.00;;;-144.48;100.00
4123;BME280;2075;51.062;6.920;2023-03-03T02:26:14;-11667.00;;;-144.48;100.00
4123;BME280;2075;51.062;6.920;2023-03-03T02:29:00;-11667.00;;;-144.48;100.00
4123;BME280;2075;51.062;6.920;2023-03-03T02:31:46;-11667.00;;;-144.48;100.00
4123;BME280;2075;51.062;6.920;2023-03-03T02:34:44;-11667.00;;;-144.48;100.00
4123;BME280;2075;51.062;6.920;2023-03-03T02:37:30;-11667.00;;;-144.48;100.00
4123;BME280;2075;51.062;6.920;2023-03-03T02:40:16;-11667.00;;;-144.48;100.00
4123;BME280;2075;51.062;6.920;2023-03-03T02:43:07;-11667.00;;;-144.48;100.00
4123;BME280;2075;51.062;6.920;2023-03-03T02:45:54;-11161.53;;;-144.48;100.00
4123;BME280;2075;51.062;6.920;2023-03-03T02:48:42;-10153.28;;;-144.48;100.00
4123;BME280;2075;51.062;6.920;2023-03-03T02:51:27;-8640.34;;;-144.48;100.00
4123;BME280;2075;51.062;6.920;2023-03-03T02:54:15;-7126.69;;;-144.48;100.00
4123;BME280;2075;51.062;6.920;2023-03-03T02:57:01;-6117.19;;;-144.48;100.00
4123;BME280;2075;51.062;6.920;2023-03-03T02:59:47;-5612.34;;;-144.48;100.00
4123;BME280;2075;51.062;6.920;2023-03-03T03:02:34;-5359.88;;;-144.48;100.00
4123;BME280;2075;51.062;6.920;2023-03-03T03:05:20;-4854.91;;;-144.48;100.00
4123;BME280;2075;51.062;6.920;2023-03-03T03:08:05;-4349.84;;;-144.48;100.00
4123;BME280;2075;51.062;6.920;2023-03-03T03:10:51;-3844.69;;;-144.48;100.00
4123;BME280;2075;51.062;6.920;2023-03-03T03:13:36;-3339.50;;;-144.48;100.00
4123;BME280;2075;51.062;6.920;2023-03-03T03:16:24;-3339.50;;;-144.48;100.00
4123;BME280;2075;51.062;6.920;2023-03-03T03:19:09;-4097.28;;;-144.48;100.00
4123;BME280;2075;51.062;6.920;2023-03-03T03:21:55;-4602.38;;;-144.48;100.00
4123;BME280;2075;51.062;6.920;2023-03-03T03:24:41;-3844.69;;;-144.48;100.00
4123;BME280;2075;51.062;6.920;2023-03-03T03:27:27;-4097.28;;;-144.48;100.00
4123;BME280;2075;51.062;6.920;2023-03-03T03:30:12;-4602.38;;;-144.48;100.00
4123;BME280;2075;51.062;6.920;2023-03-03T03:33:00;-4097.28;;;-144.48;100.00
4123;BME280;2075;51.062;6.920;2023-03-03T03:35:45;-2834.19;;;-144.48;100.00
4123;BME280;2075;51.062;6.920;2023-03-03T03:38:33;-812.25;;;-144.48;100.00
4123;BME280;2075;51.062;6.920;2023-03-03T03:41:21;-53.69;;;-144.48;100.00
4123;BME280;2075;51.062;6.920;2023-03-03T03:44:06;-53.69;;;-144.48;100.00
4123;BME280;2075;51.062;6.920;2023-03-03T03:46:52;452.09;;;-144.48;100.00
4123;BME280;2075;51.062;6.920;2023-03-03T03:49:39;957.97;;;-144.48;100.00
4123;BME280;2075;51.062;6.920;2023-03-03T03:52:25;-812.25;;;-144.48;100.00
4123;BME280;2075;51.062;6.920;2023-03-03T03:55:10;-2581.53;;;-144.48;100.00
4123;BME280;2075;51.062;6.920;2023-03-03T03:57:57;-4854.91;;;-144.48;100.00
4123;BME280;2075;51.062;6.920;2023-03-03T04:00:44;-5864.78;;;-144.48;100.00
4123;BME280;2075;51.062;6.920;2023-03-03T04:03:30;-5612.34;;;-144.48;100.00
4123;BME280;2075;51.062;6.920;2023-03-03T04:06:17;-4602.38;;;-144.48;100.00
4123;BME280;2075;51.062;6.920;2023-03-03T04:09:02;-2834.19;;;-144.48;100.00
4123;BME280;2075;51.062;6.920;2023-03-03T04:11:48;-812.25;;;-144.48;100.00
4123;BME280;2075;51.062;6.920;2023-03-03T04:14:35;-1065.06;;;-144.48;100.00
4123;BME280;2075;51.062;6.920;2023-03-03T04:17:21;-306.56;;;-144.48;100.00
4123;BME280;2075;51.062;6.920;2023-03-03T04:20:10;-1823.38;;;-144.48;100.00
4123;BME280;2075;51.062;6.920;2023-03-03T04:22:58;-1065.06;;;-144.48;100.00
4123;BME280;2075;51.062;6.920;2023-03-03T04:25:44;-559.44;;;-144.48;100.00
4123;BME280;2075;51.062;6.920;2023-03-03T04:28:32;-306.56;;;-144.48;100.00
4123;BME280;2075;51.062;6.920;2023-03-03T04:31:17;-812.25;;;-144.48;100.00
4123;BME280;2075;51.062;6.920;2023-03-03T04:34:04;199.19;;;-144.48;100.00
4123;BME280;2075;51.062;6.920;2023-03-03T04:36:50;2223.00;;;-144.48;100.00
4123;BME280;2075;51.062;6.920;2023-03-03T04:39:37;3488.53;;;-144.48;100.00
4123;BME280;2075;51.062;6.920;2023-03-03T04:42:22;4501.28;;;-144.48;100.00
4123;BME280;2075;51.062;6.920;2023-03-03T04:45:08;3488.53;;;-144.48;100.00
4123;BME280;2075;51.062;6.920;2023-03-03T04:47:54;3235.38;;;-144.48;100.00
4123;BME280;2075;51.062;6.920;2023-03-03T04:50:41;2223.00;;;-144.48;100.00
4123;BME280;2075;51.062;6.920;2023-03-03T04:53:26;1969.97;;;-144.48;100.00
4123;BME280;2075;51.062;6.920;2023-03-03T04:56:12;2729.16;;;-144.48;100.00
4123;BME280;2075;51.062;6.920;2023-03-03T04:58:58;2223.00;;;-144.48;100.00
4123;BME280;2075;51.062;6.920;2023-03-03T05:01:43;2223.00;;;-144.48;100.00
4123;BME280;2075;51.062;6.920;2023-03-03T05:04:30;1210.94;;;-144.48;100.00
4123;BME280;2075;51.062;6.920;2023-03-03T05:07:16;957.97;;;-144.48;100.00
4123;BME280;2075;51.062;6.920;2023-03-03T05:10:03;705.03;;;-144.48;100.00
4123;BME280;2075;51.062;6.920;2023-03-03T05:12:50;2476.06;;;-144.48;100.00
4123;BME280;2075;51.062;6.920;2023-03-03T05:15:35;3994.88;;;-144.48;100.00
4123;BME280;2075;51.062;6.920;2023-03-03T05:18:21;2729.16;;;-144.48;100.00
4123;BME280;2075;51.062;6.920;2023-03-03T05:21:06;4248.06;;;-144.48;100.00
4123;BME280;2075;51.062;6.920;2023-03-03T05:23:52;6274.38;;;-144.48;100.00
4123;BME280;2075;51.062;6.920;2023-03-03T05:26:37;7541.47;;;-144.48;100.00
4123;BME280;2075;51.062;6.920;2023-03-03T05:29:24;7794.94;;;-144.48;100.00
4123;BME280;2075;51.062;6.920;2023-03-03T05:32:11;8048.44;;;-144.48;100.00
4123;BME280;2075;51.062;6.920;2023-03-03T05:34:57;8301.94;;;-144.48;100.00
4123;BME280;2075;51.062;6.920;2023-03-03T05:37:43;8809.03;;;-144.48;100.00
4123;BME280;2075;51.062;6.920;2023-03-03T05:40:31;9062.59;;;-144.48;100.00
4123;BME280;2075;51.062;6.920;2023-03-03T05:43:16;10330.75;;;-144.48;100.00
4123;BME280;2075;51.062;6.920;2023-03-03T05:46:03;8301.94;;;-144.48;100.00
4123;BME280;2075;51.062;6.920;2023-03-03T05:48:50;8555.47;;;-144.48;100.00
4123;BME280;2075;51.062;6.920;2023-03-03T05:51:36;9316.19;;;-144.48;100.00
4123;BME280;2075;51.062;6.920;2023-03-03T05:54:21;10330.75;;;-144.48;100.00
4123;BME280;2075;51.062;6.920;2023-03-03T05:57:06;11599.41;;;-144.48;100.00
4123;BME280;2075;51.062;6.920;2023-03-03T05:59:52;13122.41;;;-144.48;100.00
4123;BME280;2075;51.062;6.920;2023-03-03T06:02:39;11853.19;;;-144.48;100.00
4123;BME280;2075;51.062;6.920;2023-03-03T06:05:24;14646.13;;;-144.48;100.00
4123;BME280;2075;51.062;6.920;2023-03-03T06:08:09;16678.81;;;-144.48;100.00
4123;BME280;2075;51.062;6.920;2023-03-03T06:10:55;14900.13;;;-144.48;100.00
4123;BME280;2075;51.062;6.920;2023-03-03T06:13:40;13376.31;;;-144.48;100.00
4123;BME280;2075;51.062;6.920;2023-03-03T06:16:25;13376.31;;;-144.48;100.00
4123;BME280;2075;51.062;6.920;2023-03-03T06:19:12;12614.66;;;-144.48;100.00
4123;BME280;2075;51.062;6.920;2023-03-03T06:21:58;12614.66;;;-144.48;100.00
4123;BME280;2075;51.062;6.920;2023-03-03T06:24:43;12614.66;;;-144.48;100.00
4123;BME280;2075;51.062;6.920;2023-03-03T06:27:29;12868.53;;;-144.48;100.00
4123;BME280;2075;51.062;6.920;2023-03-03T06:30:15;13122.41;;;-144.48;100.00
4123;BME280;2075;51.062;6.920;2023-03-03T06:33:01;13122.41;;;-144.48;100.00
4123;BME280;2075;51.062;6.920;2023-03-03T06:35:50;12868.53;;;-144.48;100.00
4123;BME280;2075;51.062;6.920;2023-03-03T06:38:35;14392.13;;;-144.48;100.00
4123;BME280;2075;51.062;6.920;2023-03-03T06:41:21;17949.91;;;-144.48;100.00
4123;BME280;2075;51.062;6.920;2023-03-03T06:44:06;18458.47;;;-144.48;100.00
4123;BME280;2075;51.062;6.920;2023-03-03T06:46:52;18967.13;;;-144.48;100.00
4123;BME280;2075;51.062;6.920;2023-03-03T06:49:40;21766.06;;;-144.48;100.00
4123;BME280;2075;51.062;6.920;2023-03-03T06:52:27;20748.00;;;-144.48;100.00
4123;BME280;2075;51.062;6.920;2023-03-03T06:55:17;20239.06;;;-144.48;100.00
4123;BME280;2075;51.062;6.920;2023-03-03T06:58:09;24057.88;;;-144.48;100.00
4123;BME280;2075;51.062;6.920;2023-03-03T07:00:57;20239.06;;;-144.48;100.00
4123;BME280;2075;51.062;6.920;2023-03-03T07:03:43;21257.00;;;-144.48;100.00
4123;BME280;2075;51.062;6.920;2023-03-03T07:06:31;23803.16;;;-144.48;100.00
4123;BME280;2075;51.062;6.920;2023-03-03T07:09:21;24822.16;;;-144.48;100.00
4123;BME280;2075;51.062;6.920;2023-03-03T07:12:10;26606.16;;;-144.48;100.00
4123;BME280;2075;51.062;6.920;2023-03-03T07:15:09;26861.09;;;-144.48;100.00
4123;BME280;2075;51.062;6.920;2023-03-03T07:17:56;31198.03;;;-144.48;100.00
4123;BME280;2075;51.062;6.920;2023-03-03T07:20:42;33751.78;;;-144.48;100.00
4123;BME280;2075;51.062;6.920;2023-03-03T07:23:33;35029.38;;;-144.48;100.00
4123;BME280;2075;51.062;6.920;2023-03-03T07:26:28;33240.88;;;-144.48;100.00
4123;BME280;2075;51.062;6.920;2023-03-03T07:29:21;36307.50;;;-144.48;100.00
4123;BME280;2075;51.062;6.920;2023-03-03T07:32:25;39376.91;;;-144.48;100.00
4123;BME280;2075;51.062;6.920;2023-03-03T07:35:28;41424.75;;;-144.48;100.00
4123;BME280;2075;51.062;6.920;2023-03-03T07:38:23;39888.75;;;-144.48;100.00
4123;BME280;2075;51.062;6.920;2023-03-03T07:41:13;46036.97;;;-144.48;100.00
4123;BME280;2075;51.062;6.920;2023-03-03T07:44:03;46293.41;;;-144.48;100.00
4123;BME280;2075;51.062;6.920;2023-03-03T07:46:50;49115.28;;;-144.48;100.00
4123;BME280;2075;51.062;6.920;2023-03-03T07:49:36;52710.22;;;-144.48;100.00
4123;BME280;2075;51.062;6.920;2023-03-03T07:52:26;51939.56;;;-144.48;100.00
4123;BME280;2075;51.062;6.920;2023-03-03T07:55:24;49628.63;;;-144.48;100.00
4123;BME280;2075;51.062;6.920;2023-03-03T07:58:20;55280.38;;;-144.48;100.00
4123;BME280;2075;51.062;6.920;2023-03-03T08:04:28;72815.13;;;-144.48;100.00
4123;BME280;2075;51.062;6.920;2023-03-03T08:07:18;79316.56;;;-144.48;100.00
4123;BME280;2075;51.062;6.920;2023-03-03T08:10:28;86924.91;;;-144.48;100.00
4123;BME280;2075;51.062;6.920;2023-03-03T08:13:18;84251.88;;;-144.48;100.00
4123;BME280;2075;51.062;6.920;2023-03-03T08:16:24;86553.94;;;-144.48;100.00
4123;BME280;2075;51.062;6.920;2023-03-03T08:19:15;89192.25;;;-144.48;100.00
4123;BME280;2075;51.062;6.920;2023-03-03T08:22:11;91004.31;;;-144.48;100.00
4123;BME280;2075;51.062;6.920;2023-03-03T08:24:57;92001.06;;;-144.48;100.00
4123;BME280;2075;51.062;6.920;2023-03-03T08:27:42;91247.91;;;-144.48;100.00
4123;BME280;2075;51.062;6.920;2023-03-03T08:30:28;89953.06;;;-144.48;100.00
4123;BME280;2075;51.062;6.920;2023-03-03T08:33:14;90494.91;;;-144.48;100.00
4123;BME280;2075;51.062;6.920;2023-03-03T08:36:00;91093.63;;;-144.48;100.00
4123;BME280;2075;51.062;6.920;2023-03-03T08:38:47;92198.03;;;-144.48;100.00
4123;BME280;2075;51.062;6.920;2023-03-03T08:41:32;93241.84;;;-144.48;100.00
4123;BME280;2075;51.062;6.920;2023-03-03T08:44:18;93562.75;;;-144.48;100.00
4123;BME280;2075;51.062;6.920;2023-03-03T08:47:04;94168.13;;;-144.48;100.00
4123;BME280;2075;51.062;6.920;2023-03-03T08:49:49;93286.50;;;-144.48;100.00
4123;BME280;2075;51.062;6.920;2023-03-03T08:52:35;93997.47;;;-144.48;100.00
4123;BME280;2075;51.062;6.920;2023-03-03T08:55:21;94099.03;;;-144.48;100.00
4123;BME280;2075;51.062;6.920;2023-03-03T08:58:07;94328.63;;;-144.48;100.00
4123;BME280;2075;51.062;6.920;2023-03-03T09:00:53;94092.94;;;-144.48;100.00
4123;BME280;2075;51.062;6.920;2023-03-03T09:03:38;94147.81;;;-144.48;100.00
4123;BME280;2075;51.062;6.920;2023-03-03T09:06:23;94456.63;;;-144.48;100.00
4123;BME280;2075;51.062;6.920;2023-03-03T09:09:09;94552.13;;;-144.48;100.00
4123;BME280;2075;51.062;6.920;2023-03-03T09:11:58;94580.56;;;-144.48;100.00
4123;BME280;2075;51.062;6.920;2023-03-03T09:14:47;94442.41;;;-144.48;100.00
4123;BME280;2075;51.062;6.920;2023-03-03T09:17:36;94523.66;;;-144.48;100.00
4123;BME280;2075;51.062;6.920;2023-03-03T09:20:33;94312.38;;;-144.48;100.00
4123;BME280;2075;51.062;6.920;2023-03-03T09:23:31;93625.72;;;-144.48;100.00
4123;BME280;2075;51.062;6.920;2023-03-03T09:26:24;92728.00;;;-144.48;100.00
4123;BME280;2075;51.062;6.920;2023-03-03T09:29:26;93782.13;;;-144.48;100.00
4123;BME280;2075;51.062;6.920;2023-03-03T09:32:23;94151.88;;;-144.48;100.00
4123;BME280;2075;51.062;6.920;2023-03-03T09:35:34;94279.84;;;-144.48;100.00
4123;BME280;2075;51.062;6.920;2023-03-03T09:38:26;94460.69;;;-144.48;100.00
4123;BME280;2075;51.062;6.920;2023-03-03T09:48:07;94306.28;;;-144.48;100.00
4123;BME280;2075;51.062;6.920;2023-03-03T09:51:12;94411.91;;;-144.48;99.35
4123;BME280;2075;51.062;6.920;2023-03-03T09:54:22;94399.72;;;-144.48;99.24
4123;BME280;2075;51.062;6.920;2023-03-03T09:57:15;94407.84;;;-144.48;98.26
4123;BME280;2075;51.062;6.920;2023-03-03T10:03:26;94647.59;;;-144.48;95.77
4123;BME280;2075;51.062;6.920;2023-03-03T10:06:24;94566.34;;;-144.48;96.56
4123;BME280;2075;51.062;6.920;2023-03-03T10:09:36;94582.59;;;-144.48;94.98
4123;BME280;2075;51.062;6.920;2023-03-03T10:12:26;94647.59;;;-144.48;94.50
4123;BME280;2075;51.062;6.920;2023-03-03T10:15:31;94667.94;;;-144.48;92.39
4123;BME280;2075;51.062;6.920;2023-03-03T10:18:29;94741.06;;;-144.48;91.39
4123;BME280;2075;51.062;6.920;2023-03-03T10:21:22;94716.69;;;-144.48;90.73
4123;BME280;2075;51.062;6.920;2023-03-03T10:24:18;94797.97;;;-144.48;89.77
4123;BME280;2075;51.062;6.920;2023-03-03T10:27:17;94814.22;;;-144.48;90.58
4123;BME280;2075;51.062;6.920;2023-03-03T10:30:12;94828.44;;;-144.48;89.45
4123;BME280;2075;51.062;6.920;2023-03-03T10:33:05;94850.81;;;-144.48;89.28
4123;BME280;2075;51.062;6.920;2023-03-03T10:36:11;94808.13;;;-144.48;89.29
4123;BME280;2075;51.062;6.920;2023-03-03T10:39:12;94802.03;;;-144.48;89.75
4123;BME280;2075;51.062;6.920;2023-03-03T10:42:13;94761.41;;;-144.48;89.18
4123;BME280;2075;51.062;6.920;2023-03-03T10:48:33;94810.16;;;-144.48;85.80
4123;BME280;2075;51.062;6.920;2023-03-03T10:51:30;94822.34;;;-144.48;86.40
4123;BME280;2075;51.062;6.920;2023-03-03T10:54:29;94850.81;;;-144.48;85.65
4123;BME280;2075;51.062;6.920;2023-03-03T10:57:27;94818.28;;;-144.48;85.32
4123;BME280;2075;51.062;6.920;2023-03-03T11:00:20;94808.13;;;-144.48;86.32
4123;BME280;2075;51.062;6.920;2023-03-03T11:06:35;94818.28;;;-144.48;83.55
4123;BME280;2075;51.062;6.920;2023-03-03T11:09:36;94832.50;;;-144.48;85.71
4123;BME280;2075;51.062;6.920;2023-03-03T11:12:37;94810.16;;;-144.48;86.44
4123;BME280;2075;51.062;6.920;2023-03-03T11:15:39;94822.34;;;-144.48;83.00
4123;BME280;2075;51.062;6.920;2023-03-03T11:18:34;95009.31;;;-144.48;82.75
4123;BME280;2075;51.062;6.920;2023-03-03T11:21:28;94832.50;;;-144.48;82.17
4123;BME280;2075;51.062;6.920;2023-03-03T11:24:33;94785.78;;;-144.48;80.43
4123;BME280;2075;51.062;6.920;2023-03-03T11:27:37;94749.22;;;-144.48;80.01
4123;BME280;2075;51.062;6.920;2023-03-03T11:30:34;94767.50;;;-144.48;78.23
4123;BME280;2075;51.062;6.920;2023-03-03T11:33:33;94781.72;;;-144.48;77.49
4123;BME280;2075;51.062;6.920;2023-03-03T11:36:25;94806.09;;;-144.48;76.65
4123;BME280;2075;51.062;6.920;2023-03-03T11:39:15;94779.69;;;-144.48;77.69
4123;BME280;2075;51.062;6.920;2023-03-03T11:42:10;94773.59;;;-144.48;75.91
4123;BME280;2075;51.062;6.920;2023-03-03T11:45:02;94789.84;;;-144.48;78.83
4123;BME280;2075;51.062;6.920;2023-03-03T11:47:56;94761.41;;;-144.48;77.20
4123;BME280;2075;51.062;6.920;2023-03-03T11:50:50;94720.75;;;-144.48;75.36
4123;BME280;2075;51.062;6.920;2023-03-03T11:53:44;94726.84;;;-144.48;72.76
4123;BME280;2075;51.062;6.920;2023-03-03T11:56:38;94722.78;;;-144.48;70.08
4123;BME280;2075;51.062;6.920;2023-03-03T12:02:50;94678.09;;;-144.48;70.88
4123;BME280;2075;51.062;6.920;2023-03-03T12:05:46;94730.91;;;-144.48;70.54
4123;BME280;2075;51.062;6.920;2023-03-03T12:08:47;94751.25;;;-144.48;68.91
4123;BME280;2075;51.062;6.920;2023-03-03T12:11:47;94712.63;;;-144.48;68.32
4123;BME280;2075;51.062;6.920;2023-03-03T12:14:52;94712.63;;;-144.48;66.66
4123;BME280;2075;51.062;6.920;2023-03-03T12:18:02;94627.28;;;-144.48;62.53
4123;BME280;2075;51.062;6.920;2023-03-03T12:21:02;94680.13;;;-144.48;67.07
4123;BME280;2075;51.062;6.920;2023-03-03T12:24:07;94765.47;;;-144.48;68.03
4123;BME280;2075;51.062;6.920;2023-03-03T12:27:09;94739.03;;;-144.48;66.35
4123;BME280;2075;51.062;6.920;2023-03-03T12:30:04;94692.31;;;-144.48;64.77
4123;BME280;2075;51.062;6.920;2023-03-03T12:33:10;94732.94;;;-144.48;67.16
4123;BME280;2075;51.062;6.920;2023-03-03T12:36:05;94698.41;;;-144.48;65.33
4123;BME280;2075;51.062;6.920;2023-03-03T12:39:01;94749.22;;;-144.48;67.66
4123;BME280;2075;51.062;6.920;2023-03-03T12:41:55;94696.38;;;-144.48;65.35
4123;BME280;2075;51.062;6.920;2023-03-03T12:44:50;94639.47;;;-144.48;61.48
4123;BME280;2075;51.062;6.920;2023-03-03T12:47:45;94728.88;;;-144.48;65.04
4123;BME280;2075;51.062;6.920;2023-03-03T12:50:41;94724.81;;;-144.48;67.46
4123;BME280;2075;51.062;6.920;2023-03-03T12:53:43;94781.72;;;-144.48;66.67
4123;BME280;2075;51.062;6.920;2023-03-03T12:56:36;94706.53;;;-144.48;66.51
4123;BME280;2075;51.062;6.920;2023-03-03T12:59:30;94694.34;;;-144.48;63.72
4123;BME280;2075;51.062;6.920;2023-03-03T13:02:33;94643.53;;;-144.48;61.64
4123;BME280;2075;51.062;6.920;2023-03-03T13:05:28;94672.00;;;-144.48;60.21
4123;BME280;2075;51.062;6.920;2023-03-03T13:08:32;94625.25;;;-144.48;60.25
4123;BME280;2075;51.062;6.920;2023-03-03T13:11:35;94649.63;;;-144.48;59.57
4123;BME280;2075;51.062;6.920;2023-03-03T13:14:30;94629.31;;;-144.48;59.56
4123;BME280;2075;51.062;6.920;2023-03-03T13:17:23;94745.13;;;-144.48;60.25
4123;BME280;2075;51.062;6.920;2023-03-03T13:20:19;94737.00;;;-144.48;64.63
4123;BME280;2075;51.062;6.920;2023-03-03T13:23:09;94769.53;;;-144.48;67.79
4123;BME280;2075;51.062;6.920;2023-03-03T13:26:01;94751.25;;;-144.48;67.51
4123;BME280;2075;51.062;6.920;2023-03-03T13:28:56;94883.31;;;-144.48;65.82
4123;BME280;2075;51.062;6.920;2023-03-03T13:31:47;94743.09;;;-144.48;64.96
4123;BME280;2075;51.062;6.920;2023-03-03T13:34:39;94793.91;;;-144.48;68.36
4123;BME280;2075;51.062;6.920;2023-03-03T13:37:30;94800.00;;;-144.48;70.56
4123;BME280;2075;51.062;6.920;2023-03-03T13:40:18;94769.53;;;-144.48;67.22
4123;BME280;2075;51.062;6.920;2023-03-03T13:43:11;94732.94;;;-144.48;68.78
4123;BME280;2075;51.062;6.920;2023-03-03T13:46:04;94753.28;;;-144.48;69.15
4123;BME280;2075;51.062;6.920;2023-03-03T13:49:18;94789.84;;;-144.48;66.91
4123;BME280;2075;51.062;6.920;2023-03-03T13:52:10;94802.03;;;-144.48;68.22
4123;BME280;2075;51.062;6.920;2023-03-03T13:55:07;94769.53;;;-144.48;68.70
4123;BME280;2075;51.062;6.920;2023-03-03T13:58:00;94775.63;;;-144.48;65.68
4123;BME280;2075;51.062;6.920;2023-03-03T14:00:55;94765.47;;;-144.48;67.82
4123;BME280;2075;51.062;6.920;2023-03-03T14:03:58;94822.34;;;-144.48;70.32
4123;BME280;2075;51.062;6.920;2023-03-03T14:06:52;94785.78;;;-144.48;70.94
4123;BME280;2075;51.062;6.920;2023-03-03T14:09:53;94818.28;;;-144.48;70.52
4123;BME280;2075;51.062;6.920;2023-03-03T14:12:44;94818.28;;;-144.48;71.42
4123;BME280;2075;51.062;6.920;2023-03-03T14:15:33;94852.84;;;-144.48;72.56
4123;BME280;2075;51.062;6.920;2023-03-03T14:18:25;94832.50;;;-144.48;74.49
4123;BME280;2075;51.062;6.920;2023-03-03T14:21:15;94869.09;;;-144.48;77.03
4123;BME280;2075;51.062;6.920;2023-03-03T14:24:06;94856.91;;;-144.48;78.11
4123;BME280;2075;51.062;6.920;2023-03-03T14:26:59;94885.34;;;-144.48;76.32
4123;BME280;2075;51.062;6.920;2023-03-03T14:29:45;94806.09;;;-144.48;75.67
4123;BME280;2075;51.062;6.920;2023-03-03T14:32:30;94826.41;;;-144.48;77.13
4123;BME280;2075;51.062;6.920;2023-03-03T14:35:19;94820.31;;;-144.48;75.46
4123;BME280;2075;51.062;6.920;2023-03-03T14:38:11;94846.75;;;-144.48;77.06
4123;BME280;2075;51.062;6.920;2023-03-03T14:41:09;94865.03;;;-144.48;77.96
4123;BME280;2075;51.062;6.920;2023-03-03T14:44:00;94838.63;;;-144.48;78.15
4123;BME280;2075;51.062;6.920;2023-03-03T14:46:45;94824.38;;;-144.48;76.91
4123;BME280;2075;51.062;6.920;2023-03-03T14:49:33;94826.41;;;-144.48;77.25
4123;BME280;2075;51.062;6.920;2023-03-03T14:52:22;94844.72;;;-144.48;77.63
4123;BME280;2075;51.062;6.920;2023-03-03T14:55:30;94883.31;;;-144.48;79.99
4123;BME280;2075;51.062;6.920;2023-03-03T14:58:28;94836.56;;;-144.48;80.75
4123;BME280;2075;51.062;6.920;2023-03-03T15:01:20;94856.91;;;-144.48;81.07
4123;BME280;2075;51.062;6.920;2023-03-03T15:04:22;94810.16;;;-144.48;79.68
4123;BME280;2075;51.062;6.920;2023-03-03T15:07:30;94869.09;;;-144.48;79.52
4123;BME280;2075;51.062;6.920;2023-03-03T15:10:32;94832.50;;;-144.48;79.74
4123;BME280;2075;51.062;6.920;2023-03-03T15:13:30;94875.19;;;-144.48;78.89
4123;BME280;2075;51.062;6.920;2023-03-03T15:16:21;94852.84;;;-144.48;78.53
4123;BME280;2075;51.062;6.920;2023-03-03T15:19:25;94850.81;;;-144.48;79.17
4123;BME280;2075;51.062;6.920;2023-03-03T15:22:21;94830.47;;;-144.48;79.62
4123;BME280;2075;51.062;6.920;2023-03-03T15:25:13;94842.69;;;-144.48;81.32